createdAt,value
2018-05-08T00:03:48.386Z,2.20
2018-05-08T00:08:49.372Z,2.30
2018-05-08T00:13:51.128Z,2.00
2018-05-08T00:18:52.877Z,2.13
2018-05-08T00:23:53.860Z,2.13
2018-05-08T00:28:55.654Z,2.17
2018-05-08T00:33:56.659Z,2.17
2018-05-08T00:38:57.672Z,2.20
2018-05-08T00:43:58.674Z,2.10
2018-05-08T00:48:59.674Z,1.83
2018-05-08T00:54:01.413Z,2.43
2018-05-08T00:59:02.418Z,2.30
2018-05-08T01:04:03.410Z,1.90
2018-05-08T01:09:04.390Z,2.47
2018-05-08T01:14:05.394Z,1.60
2018-05-08T01:19:06.379Z,2.00
2018-05-08T01:24:07.382Z,1.90
2018-05-08T01:29:08.385Z,1.97
2018-05-08T01:34:09.379Z,2.10
2018-05-08T01:39:10.387Z,2.00
2018-05-08T01:44:11.393Z,2.30
2018-05-08T01:49:12.397Z,2.33
2018-05-08T01:54:13.410Z,2.47
2018-05-08T01:59:14.413Z,2.20
2018-05-08T02:04:15.428Z,2.03
2018-05-08T02:09:16.434Z,2.13
2018-05-08T02:14:17.425Z,2.20
2018-05-08T02:19:18.422Z,2.20
2018-05-08T02:24:20.150Z,1.93
2018-05-08T02:29:21.149Z,1.93
2018-05-08T02:34:22.907Z,2.40
2018-05-08T02:39:23.907Z,1.97
2018-05-08T02:44:24.917Z,2.10
2018-05-08T02:49:25.921Z,2.20
2018-05-08T02:54:26.918Z,2.10
2018-05-08T02:59:27.948Z,1.70
2018-05-08T03:04:28.933Z,1.73
2018-05-08T03:09:29.950Z,2.17
2018-05-08T03:14:30.963Z,2.03
2018-05-08T03:19:32.362Z,2.20
2018-05-08T03:24:34.130Z,2.00
2018-05-08T03:29:35.900Z,2.47
2018-05-08T03:34:37.728Z,2.30
2018-05-08T03:39:38.758Z,2.00
2018-05-08T03:44:39.777Z,2.30
2018-05-08T03:49:40.774Z,1.90
2018-05-08T03:54:41.794Z,2.03
2018-05-08T03:59:42.817Z,2.03
2018-05-08T04:04:56.184Z,2.20
2018-05-08T04:09:58.794Z,2.53
2018-05-08T04:14:59.860Z,2.53
2018-05-08T04:20:00.814Z,2.43
2018-05-08T04:25:01.851Z,2.60
2018-05-08T04:30:02.870Z,2.43
2018-05-08T04:35:03.890Z,2.40
2018-05-08T04:40:04.892Z,2.60
2018-05-08T04:45:05.890Z,3.13
2018-05-08T04:50:06.914Z,2.60
2018-05-08T04:55:07.944Z,3.10
2018-05-08T05:00:08.950Z,2.43
2018-05-08T05:05:10.008Z,2.70
2018-05-08T05:10:11.014Z,2.60
2018-05-08T05:15:12.783Z,2.50
2018-05-08T05:20:14.522Z,2.80
2018-05-08T05:25:15.508Z,2.37
2018-05-08T05:30:16.507Z,2.50
2018-05-08T05:35:17.489Z,2.50
2018-05-08T05:40:18.472Z,2.40
2018-05-08T05:45:19.471Z,2.30
2018-05-08T05:50:20.471Z,2.60
2018-05-08T05:55:21.463Z,2.00
2018-05-08T06:00:23.217Z,2.13
2018-05-08T06:05:24.225Z,2.17
2018-05-08T06:10:25.209Z,2.23
2018-05-08T06:15:26.198Z,2.60
2018-05-08T06:20:27.273Z,2.40
2018-05-08T06:25:28.223Z,2.20
2018-05-08T06:30:29.978Z,2.00
2018-05-08T06:35:30.965Z,2.33
2018-05-08T06:40:32.702Z,2.10
2018-05-08T06:45:33.702Z,2.23
2018-05-08T06:50:35.434Z,2.13
2018-05-08T06:55:36.431Z,2.20
2018-05-08T07:00:37.427Z,2.13
2018-05-08T07:05:38.409Z,2.00
2018-05-08T07:10:39.397Z,1.97
2018-05-08T07:15:41.193Z,2.27
2018-05-08T07:20:42.142Z,2.07
2018-05-08T07:25:43.162Z,2.30
2018-05-08T07:30:44.159Z,2.30
2018-05-08T07:35:45.150Z,2.03
2018-05-08T07:40:46.153Z,2.33
2018-05-08T07:45:47.884Z,2.27
2018-05-08T07:50:48.882Z,2.17
2018-05-08T07:55:50.630Z,2.30
2018-05-08T08:00:51.631Z,2.17
2018-05-08T08:05:53.373Z,1.73
2018-05-08T08:10:54.369Z,1.87
2018-05-08T08:15:55.367Z,2.07
2018-05-08T08:20:56.353Z,2.00
2018-05-08T08:25:57.354Z,2.03
2018-05-08T08:30:58.357Z,2.03
2018-05-08T08:35:59.345Z,2.00
2018-05-08T08:41:01.079Z,2.17
2018-05-08T08:46:02.071Z,2.50
2018-05-08T08:51:03.820Z,2.00
2018-05-08T08:56:04.855Z,2.00
2018-05-08T09:01:06.550Z,2.03
2018-05-08T09:06:07.538Z,2.10
2018-05-08T09:11:08.572Z,1.83
2018-05-08T09:16:09.566Z,2.17
2018-05-08T09:21:10.561Z,2.00
2018-05-08T09:26:11.567Z,2.00
2018-05-08T09:31:13.298Z,2.00
2018-05-08T09:36:14.301Z,2.07
2018-05-08T09:41:16.034Z,2.20
2018-05-08T09:46:17.033Z,1.80
2018-05-08T09:51:18.820Z,2.07
2018-05-08T09:56:19.751Z,1.80
2018-05-08T10:01:21.504Z,1.83
2018-05-08T10:06:22.509Z,2.13
2018-05-08T10:11:23.521Z,2.00
2018-05-08T10:16:24.517Z,2.03
2018-05-08T10:21:26.257Z,2.10
2018-05-08T10:26:27.246Z,2.20
2018-05-08T10:31:28.984Z,2.00
2018-05-08T10:36:29.982Z,2.30
2018-05-08T10:41:31.709Z,2.03
2018-05-08T10:46:32.701Z,2.23
2018-05-08T10:51:34.438Z,2.10
2018-05-08T10:56:35.426Z,2.00
2018-05-08T11:01:36.474Z,2.10
2018-05-08T11:06:38.142Z,2.13
2018-05-08T11:11:39.140Z,2.10
2018-05-08T11:16:40.873Z,1.70
2018-05-08T11:21:41.878Z,2.20
2018-05-08T11:26:42.990Z,2.20
2018-05-08T11:31:43.894Z,1.90
2018-05-08T11:36:44.877Z,1.90
2018-05-08T11:41:45.873Z,1.90
2018-05-08T11:46:46.889Z,2.23
2018-05-08T11:51:47.898Z,1.93
2018-05-08T11:56:49.664Z,1.90
2018-05-08T12:01:50.670Z,2.00
2018-05-08T12:06:51.693Z,2.10
2018-05-08T12:11:53.419Z,1.90
2018-05-08T12:16:54.493Z,2.23
2018-05-08T12:21:55.553Z,2.13
2018-05-08T12:26:57.244Z,2.23
2018-05-08T12:31:58.272Z,2.10
2018-05-08T12:36:59.496Z,2.07
2018-05-08T12:42:00.576Z,2.10
2018-05-08T12:47:01.590Z,2.10
2018-05-08T12:52:02.626Z,1.90
2018-05-08T12:57:04.307Z,2.17
2018-05-08T13:02:06.838Z,2.00
2018-05-08T13:07:08.585Z,2.43
2018-05-08T13:12:09.582Z,2.40
2018-05-08T13:17:10.614Z,2.47
2018-05-08T13:22:12.367Z,2.10
2018-05-08T13:27:13.403Z,2.20
2018-05-08T13:32:14.438Z,2.03
2018-05-08T13:37:15.438Z,1.67
2018-05-08T13:42:16.434Z,1.70
2018-05-08T13:47:18.382Z,2.40
2018-05-08T13:52:19.543Z,1.90
2018-05-08T13:57:20.548Z,2.00
2018-05-08T14:02:21.545Z,2.20
2018-05-08T14:07:22.525Z,1.90
2018-05-08T14:12:23.527Z,1.97
2018-05-08T14:17:24.525Z,2.20
2018-05-08T14:22:25.544Z,2.27
2018-05-08T14:27:26.536Z,1.93
2018-05-08T14:32:27.529Z,2.20
2018-05-08T14:37:29.258Z,1.90
2018-05-08T14:42:30.255Z,1.80
2018-05-08T14:47:32.010Z,1.87
2018-05-08T14:52:33.010Z,2.10
2018-05-08T14:57:34.015Z,1.90
2018-05-08T15:02:35.015Z,1.80
2018-05-08T15:07:36.764Z,1.87
2018-05-08T15:12:37.787Z,1.63
2018-05-08T15:17:39.467Z,2.10
2018-05-08T15:22:40.877Z,1.97
2018-05-08T15:27:42.634Z,1.60
2018-05-08T15:32:43.622Z,1.70
2018-05-08T15:37:45.362Z,1.70
2018-05-08T15:42:46.354Z,1.80
2018-05-08T15:47:48.093Z,1.77
2018-05-08T15:52:49.106Z,1.80
2018-05-08T15:57:50.109Z,2.00
2018-05-08T16:02:51.870Z,1.60
2018-05-08T16:07:52.870Z,1.73
2018-05-08T16:12:54.654Z,1.70
2018-05-08T16:17:56.397Z,1.83
2018-05-08T16:22:57.382Z,2.03
2018-05-08T16:27:59.160Z,1.90
2018-05-08T16:33:00.870Z,2.03
2018-05-08T16:38:01.865Z,1.83
2018-05-08T16:43:02.885Z,2.30
2018-05-08T16:48:03.877Z,2.10
2018-05-08T16:53:04.860Z,2.03
2018-05-08T16:58:06.608Z,2.03
2018-05-08T17:03:07.582Z,2.20
2018-05-08T17:08:08.562Z,2.50
2018-05-08T17:13:10.286Z,2.53
2018-05-08T17:18:11.270Z,2.17
2018-05-08T17:23:12.242Z,2.10
2018-05-08T17:28:13.957Z,2.30
2018-05-08T17:33:14.966Z,2.53
2018-05-08T17:38:15.926Z,2.20
2018-05-08T17:43:17.658Z,2.50
2018-05-08T17:48:18.637Z,2.33
2018-05-08T17:53:19.660Z,2.43
2018-05-08T17:58:20.660Z,2.20
2018-05-08T18:03:22.410Z,2.83
2018-05-08T18:08:23.410Z,2.30
2018-05-08T18:13:25.138Z,2.63
2018-05-08T18:18:26.138Z,2.40
2018-05-08T18:23:27.889Z,2.60
2018-05-08T18:28:28.912Z,2.53
2018-05-08T18:33:29.945Z,2.70
2018-05-08T18:38:30.977Z,2.30
2018-05-08T18:43:32.827Z,2.87
2018-05-08T18:48:33.823Z,2.93
2018-05-08T18:53:35.559Z,2.40
2018-05-08T18:58:36.561Z,2.60
2018-05-08T19:03:38.295Z,2.87
2018-05-08T19:08:39.307Z,2.67
2018-05-08T19:13:40.426Z,3.10
2018-05-08T19:18:47.651Z,2.90
2018-05-08T19:23:55.439Z,3.00
2018-05-08T19:29:02.616Z,2.70
2018-05-08T19:34:03.632Z,3.03
2018-05-08T19:39:05.390Z,3.10
2018-05-08T19:44:06.446Z,3.07
2018-05-08T19:49:07.451Z,2.80
2018-05-08T19:54:08.438Z,2.70
2018-05-08T19:59:09.450Z,2.87
2018-05-08T20:04:11.188Z,2.50
2018-05-08T20:09:12.262Z,3.50
2018-05-08T20:14:13.266Z,2.93
2018-05-08T20:19:14.295Z,3.53
2018-05-08T20:24:16.063Z,2.93
2018-05-08T20:29:17.829Z,2.93
2018-05-08T20:34:19.556Z,2.70
2018-05-08T20:39:20.703Z,3.23
2018-05-08T20:44:21.625Z,3.27
2018-05-08T20:49:23.385Z,2.60
2018-05-08T20:54:24.430Z,2.73
2018-05-08T20:59:25.438Z,3.10
2018-05-08T21:04:26.446Z,3.40
2018-05-08T21:09:27.526Z,3.20
2018-05-08T21:14:29.298Z,2.80
2018-05-08T21:19:30.394Z,2.97
2018-05-08T21:24:31.442Z,3.10
2018-05-08T21:29:38.426Z,2.93
2018-05-08T21:34:40.176Z,3.20
2018-05-08T21:39:41.178Z,3.17
2018-05-08T21:44:42.195Z,3.23
2018-05-08T21:49:43.189Z,3.70
2018-05-08T21:54:44.198Z,3.27
2018-05-08T21:59:45.230Z,3.03
2018-05-08T22:04:46.245Z,2.83
2018-05-08T22:09:47.246Z,2.83
2018-05-08T22:14:48.252Z,3.27
2018-05-08T22:19:49.250Z,3.00
2018-05-08T22:24:50.293Z,2.97
2018-05-08T22:29:52.050Z,3.07
2018-05-08T22:34:53.813Z,2.93
2018-05-08T22:39:54.810Z,3.00
2018-05-08T22:44:56.543Z,3.30
2018-05-08T22:49:57.556Z,3.10
2018-05-08T22:54:58.632Z,2.90
2018-05-08T22:59:59.566Z,2.90
2018-05-08T23:05:00.605Z,3.23
2018-05-08T23:10:02.359Z,3.30
2018-05-08T23:15:04.149Z,3.33
2018-05-08T23:20:05.902Z,3.53
2018-05-08T23:25:06.941Z,3.07
2018-05-08T23:30:08.378Z,2.83
2018-05-08T23:35:09.432Z,3.40
2018-05-08T23:40:10.473Z,3.50
2018-05-08T23:45:12.250Z,3.00
2018-05-08T23:50:13.301Z,3.03
2018-05-08T23:55:14.418Z,3.43
